Aérodrome :
LOGIN :

S'inscrire | Disclaimer

   EN    FR    IT 

 










Légende :    VFR   VFR Marginal   IFR   IFR Intensif   IFR Très Intensif
Visi : 
Plafond : 
>= 8 km
>= 3000ft
5 à 8 km
1000 à 3000 ft
1500m à 5 km
500 à 1000 ft
800 à 1500m
200 à 500 ft
< 800m
< 200 ft
Symboles :   Orages  Brouillard  Fortes neiges  Fortes précipitations  Vent > 20 kt
SIGMETs :   Divers  Orages  Givrage  Turbulence  Onde Orograph.  Cendres Volcan.






- Altitude de l'aérodrome : 124 ft
- Code IATA : NHT


EGWU - RAF Northolt

DERNIER METAR :
  • 281050Z 17011KT 9999 RA SCT011 BKN018 06/04 Q1006 TEMPO 6000 RA RMK GRN TEMPO GRN

METARs EXPIRÉS :
  • 281020Z 17010KT 8000 RA SCT011 BKN020 05/04 Q1007 TEMPO 6000 RA RMK GRN TEMPO GRN
  • 280950Z 17010KT 9999 -RA SCT013 BKN022 05/04 Q1008 TEMPO 6000 RA RMK GRN TEMPO GRN
  • 280920Z 16011KT 9999 -RA SCT016 BKN038 05/04 Q1009 BECMG BKN010 RMK WHT BECMG GRN
  • 280850Z 17009KT 9999 -RA SCT022 BKN045 05/03 Q1010 BECMG BKN010
  • 280820Z 17008KT 9999 -RA FEW023 BKN038 04/02 Q1010 TEMPO BKN020 RMK WHT TEMPO BLU

TAF TAF EGWU
Valide du 28 à 09h jusqu'au 29 à 03h UTC


280735Z 2809/2903 16010KT 9999 BKN030
PROB30
TEMPO 2809/2810 -RA BKN018
BECMG 2810/2812 -RA BKN010
PROB40
TEMPO 2810/2814 17015G25KT 6000 RA
BECMG 2814/2817 22018G28KT
TEMPO 2814/2817 4000 RADZ BKN006
PROB30
TEMPO 2817/2821 5000 -RA
BECMG 2822/2901 NSW BKN015



MET'MAP, la Météo Aéronautique d'un coup d'oeil ! - Copyright ORBIFLY Décembre 2007 - Disclaimer

ORBIFLY MET'MAP TEAM :

Programmation & Développement : Alexandra Zaïnal
Sur une idée originale de : Baudouin d'Aumeries
Assistance à la programmation : Marc-Olivier Méhu
Soutien technique & logistique : Manuel Goepfert

Contact : metmap@orbifly.com




SOURCES & CREDITS :

   NOAA